createdAt,value
2018-05-23T00:02:07.390Z,99.90
2018-05-23T00:04:35.679Z,99.90
2018-05-23T00:07:03.191Z,99.90
2018-05-23T00:09:30.704Z,99.90
2018-05-23T00:11:58.218Z,99.90
2018-05-23T00:14:25.760Z,99.90
2018-05-23T00:16:53.307Z,99.90
2018-05-23T00:19:20.801Z,99.90
2018-05-23T00:21:48.297Z,99.90
2018-05-23T00:24:16.598Z,99.90
2018-05-23T00:26:44.184Z,99.90
2018-05-23T00:29:12.439Z,99.90
2018-05-23T00:31:39.984Z,99.90
2018-05-23T00:34:07.500Z,99.90
2018-05-23T00:36:35.082Z,99.90
2018-05-23T00:39:02.629Z,99.90
2018-05-23T00:41:30.205Z,99.90
2018-05-23T00:43:58.488Z,99.90
2018-05-23T00:46:26.012Z,99.90
2018-05-23T00:48:53.525Z,99.90
2018-05-23T00:51:21.030Z,99.90
2018-05-23T00:53:48.554Z,99.90
2018-05-23T00:56:16.103Z,99.90
2018-05-23T00:58:43.623Z,99.90
2018-05-23T01:01:11.184Z,99.90
2018-05-23T01:03:38.739Z,99.90
2018-05-23T01:06:06.246Z,99.90
2018-05-23T01:08:33.766Z,99.90
2018-05-23T01:11:01.296Z,99.90
2018-05-23T01:13:28.796Z,99.90
2018-05-23T01:15:56.334Z,99.90
2018-05-23T01:18:23.835Z,99.90
2018-05-23T01:20:51.337Z,99.90
2018-05-23T01:23:18.886Z,99.90
2018-05-23T01:25:46.386Z,99.90
2018-05-23T01:28:13.904Z,99.90
2018-05-23T01:30:41.440Z,99.90
2018-05-23T01:33:09.720Z,99.90
2018-05-23T01:35:37.244Z,99.90
2018-05-23T01:38:04.763Z,99.90
2018-05-23T01:40:32.272Z,99.90
2018-05-23T01:42:59.826Z,99.90
2018-05-23T01:45:27.343Z,99.90
2018-05-23T01:47:54.878Z,99.90
2018-05-23T01:50:22.853Z,99.90
2018-05-23T01:52:50.354Z,99.90
2018-05-23T01:55:17.867Z,99.90
2018-05-23T01:57:46.158Z,99.90
2018-05-23T02:00:13.716Z,99.90
2018-05-23T02:02:41.241Z,99.90
2018-05-23T02:05:08.855Z,99.90
2018-05-23T02:07:36.386Z,99.90
2018-05-23T02:10:03.882Z,99.90
2018-05-23T02:12:31.446Z,99.90
2018-05-23T02:14:58.943Z,99.90
2018-05-23T02:17:26.443Z,99.90
2018-05-23T02:19:53.987Z,99.90
2018-05-23T02:22:22.271Z,99.90
2018-05-23T02:24:50.547Z,99.90
2018-05-23T02:27:18.850Z,99.90
2018-05-23T02:29:46.385Z,99.90
2018-05-23T02:32:15.489Z,99.90
2018-05-23T02:34:43.032Z,99.90
2018-05-23T02:37:10.574Z,99.90
2018-05-23T02:39:38.085Z,99.90
2018-05-23T02:42:05.628Z,99.90
2018-05-23T02:44:33.125Z,99.90
2018-05-23T02:47:00.678Z,99.90
2018-05-23T02:49:28.175Z,99.90
2018-05-23T02:51:55.695Z,99.90
2018-05-23T02:54:23.208Z,99.90
2018-05-23T02:56:51.507Z,99.90
2018-05-23T02:59:19.031Z,99.90
2018-05-23T03:01:46.577Z,99.90
2018-05-23T03:04:14.119Z,99.90
2018-05-23T03:06:41.631Z,99.90
2018-05-23T03:09:09.911Z,99.90
2018-05-23T03:11:37.445Z,99.90
2018-05-23T03:14:04.945Z,99.90
2018-05-23T03:16:33.218Z,99.90
2018-05-23T03:19:00.737Z,99.90
2018-05-23T03:21:28.234Z,99.90
2018-05-23T03:23:55.769Z,99.90
2018-05-23T03:26:23.338Z,99.90
2018-05-23T03:28:50.847Z,99.90
2018-05-23T03:31:18.371Z,99.90
2018-05-23T03:33:46.677Z,99.90
2018-05-23T03:36:14.186Z,99.90
2018-05-23T03:38:41.708Z,99.90
2018-05-23T03:41:09.995Z,99.90
2018-05-23T03:43:37.524Z,99.90
2018-05-23T03:46:05.083Z,99.90
2018-05-23T03:48:33.374Z,99.90
2018-05-23T03:51:00.875Z,99.90
2018-05-23T03:53:28.378Z,99.90
2018-05-23T03:55:55.914Z,99.90
2018-05-23T03:58:23.419Z,99.90
2018-05-23T04:01:02.610Z,99.90
2018-05-23T04:03:42.021Z,99.90
2018-05-23T04:06:23.647Z,99.90
2018-05-23T04:08:51.932Z,99.90
2018-05-23T04:11:19.478Z,99.90
2018-05-23T04:13:46.995Z,99.90
2018-05-23T04:16:14.499Z,99.90
2018-05-23T04:18:42.026Z,99.90
2018-05-23T04:21:09.538Z,99.90
2018-05-23T04:23:37.048Z,99.90
2018-05-23T04:26:04.583Z,99.90
2018-05-23T04:28:32.082Z,99.90
2018-05-23T04:30:59.605Z,99.90
2018-05-23T04:33:27.131Z,99.90
2018-05-23T04:35:54.635Z,99.90
2018-05-23T04:38:22.158Z,99.90
2018-05-23T04:40:50.461Z,99.90
2018-05-23T04:43:17.977Z,99.90
2018-05-23T04:45:45.480Z,99.90
2018-05-23T04:48:13.015Z,99.90
2018-05-23T04:50:40.645Z,99.90
2018-05-23T04:53:08.154Z,99.90
2018-05-23T04:55:35.695Z,99.90
2018-05-23T04:58:03.203Z,99.90
2018-05-23T05:00:30.711Z,99.90
2018-05-23T05:02:58.272Z,99.90
2018-05-23T05:05:26.555Z,99.90
2018-05-23T05:07:54.071Z,99.90
2018-05-23T05:10:21.653Z,99.90
2018-05-23T05:12:49.578Z,99.90
2018-05-23T05:15:17.134Z,99.90
2018-05-23T05:17:44.709Z,99.90
2018-05-23T05:20:12.938Z,99.90
2018-05-23T05:22:41.025Z,99.90
2018-05-23T05:25:09.619Z,99.90
2018-05-23T05:27:37.261Z,99.90
2018-05-23T05:30:04.779Z,99.90
2018-05-23T05:32:32.323Z,99.90
2018-05-23T05:34:59.850Z,99.90
2018-05-23T05:37:28.117Z,99.90
2018-05-23T05:39:55.662Z,99.90
2018-05-23T05:42:23.166Z,99.90
2018-05-23T05:44:50.678Z,99.90
2018-05-23T05:47:18.278Z,99.90
2018-05-23T05:49:46.550Z,99.90
2018-05-23T05:52:14.830Z,99.90
2018-05-23T05:54:43.157Z,99.90
2018-05-23T05:57:10.678Z,99.90
2018-05-23T05:59:38.941Z,99.90
2018-05-23T06:02:07.280Z,99.90
2018-05-23T06:04:34.846Z,99.90
2018-05-23T06:07:02.359Z,99.90
2018-05-23T06:09:29.968Z,99.90
2018-05-23T06:11:57.436Z,99.90
2018-05-23T06:14:24.985Z,99.90
2018-05-23T06:16:52.595Z,99.90
2018-05-23T06:19:20.869Z,99.90
2018-05-23T06:21:49.177Z,99.90
2018-05-23T06:24:16.735Z,99.90
2018-05-23T06:26:44.240Z,99.90
2018-05-23T06:29:11.764Z,99.90
2018-05-23T06:31:39.290Z,99.90
2018-05-23T06:34:07.574Z,99.90
2018-05-23T06:36:35.842Z,99.90
2018-05-23T06:39:03.369Z,99.90
2018-05-23T06:41:30.892Z,99.90
2018-05-23T06:43:58.464Z,99.90
2018-05-23T06:46:25.986Z,99.90
2018-05-23T06:48:54.259Z,99.90
2018-05-23T06:51:21.795Z,99.90
2018-05-23T06:53:49.295Z,99.90
2018-05-23T06:56:17.605Z,99.90
2018-05-23T06:58:45.125Z,99.90
2018-05-23T07:01:12.662Z,99.90
2018-05-23T07:03:40.202Z,99.90
2018-05-23T07:06:07.715Z,99.90
2018-05-23T07:08:35.233Z,99.90
2018-05-23T07:11:02.795Z,99.90
2018-05-23T07:13:30.286Z,99.90
2018-05-23T07:15:57.812Z,99.90
2018-05-23T07:18:25.332Z,99.90
2018-05-23T07:20:52.853Z,99.90
2018-05-23T07:23:21.154Z,99.90
2018-05-23T07:25:48.693Z,99.90
2018-05-23T07:28:17.006Z,99.90
2018-05-23T07:30:44.533Z,99.90
2018-05-23T07:33:13.118Z,99.90
2018-05-23T07:35:40.660Z,99.90
2018-05-23T07:38:08.179Z,99.90
2018-05-23T07:40:36.449Z,99.90
2018-05-23T07:43:03.973Z,99.90
2018-05-23T07:45:31.522Z,99.90
2018-05-23T07:47:59.066Z,99.90
2018-05-23T07:50:26.650Z,99.90
2018-05-23T07:52:54.179Z,99.90
2018-05-23T07:55:21.679Z,99.90
2018-05-23T07:57:49.219Z,99.90
2018-05-23T08:00:16.722Z,99.90
2018-05-23T08:02:44.240Z,99.90
2018-05-23T08:05:11.774Z,99.90
2018-05-23T08:07:39.273Z,99.90
2018-05-23T08:10:06.776Z,99.90
2018-05-23T08:12:34.995Z,99.90
2018-05-23T08:15:02.500Z,99.90
2018-05-23T08:17:30.045Z,99.90
2018-05-23T08:19:57.601Z,99.90
2018-05-23T08:22:25.136Z,99.90
2018-05-23T08:24:52.667Z,99.90
2018-05-23T08:27:20.175Z,99.90
2018-05-23T08:29:47.820Z,99.90
2018-05-23T08:32:15.250Z,99.90
2018-05-23T08:34:42.754Z,99.90
2018-05-23T08:37:10.295Z,99.90
2018-05-23T08:39:38.546Z,99.90
2018-05-23T08:42:06.074Z,99.90
2018-05-23T08:44:34.386Z,99.90
2018-05-23T08:47:01.906Z,99.90
2018-05-23T08:49:30.184Z,99.90
2018-05-23T08:51:57.714Z,99.90
2018-05-23T08:54:25.246Z,99.90
2018-05-23T08:56:52.758Z,99.90
2018-05-23T08:59:21.096Z,99.90
2018-05-23T09:01:48.604Z,99.90
2018-05-23T09:04:16.904Z,99.90
2018-05-23T09:06:44.439Z,99.90
2018-05-23T09:09:12.730Z,99.90
2018-05-23T09:11:40.246Z,99.90
2018-05-23T09:14:07.777Z,99.90
2018-05-23T09:16:35.310Z,99.90
2018-05-23T09:19:02.850Z,99.90
2018-05-23T09:21:31.227Z,99.90
2018-05-23T09:23:58.742Z,99.90
2018-05-23T09:26:26.251Z,99.90
2018-05-23T09:28:53.779Z,99.90
2018-05-23T09:31:21.303Z,99.90
2018-05-23T09:33:48.830Z,99.90
2018-05-23T09:36:17.118Z,99.90
2018-05-23T09:38:44.624Z,99.90
2018-05-23T09:41:12.125Z,99.90
2018-05-23T09:43:39.667Z,99.90
2018-05-23T09:46:07.187Z,99.90
2018-05-23T09:48:35.427Z,99.90
2018-05-23T09:51:03.722Z,99.90
2018-05-23T09:53:31.233Z,99.90
2018-05-23T09:55:58.821Z,99.90
2018-05-23T09:58:26.339Z,99.90
2018-05-23T10:00:53.876Z,99.90
2018-05-23T10:03:21.369Z,99.90
2018-05-23T10:05:48.874Z,99.90
2018-05-23T10:08:16.441Z,99.90
2018-05-23T10:10:43.945Z,99.90
2018-05-23T10:13:11.446Z,99.90
2018-05-23T10:15:39.739Z,99.90
2018-05-23T10:18:08.002Z,99.90
2018-05-23T10:20:36.301Z,99.90
2018-05-23T10:23:03.822Z,99.90
2018-05-23T10:25:31.334Z,99.90
2018-05-23T10:27:58.846Z,99.90
2018-05-23T10:30:26.444Z,99.90
2018-05-23T10:32:53.989Z,99.90
2018-05-23T10:35:22.322Z,99.90
2018-05-23T10:37:49.826Z,99.90
2018-05-23T10:40:18.102Z,99.90
2018-05-23T10:42:45.640Z,99.90
2018-05-23T10:45:13.142Z,99.90
2018-05-23T10:47:40.654Z,99.90
2018-05-23T10:50:08.209Z,99.90
2018-05-23T10:52:35.731Z,99.90
2018-05-23T10:55:03.270Z,99.90
2018-05-23T10:57:31.578Z,99.90
2018-05-23T10:59:59.083Z,99.90
2018-05-23T11:02:26.588Z,99.90
2018-05-23T11:04:54.890Z,99.90
2018-05-23T11:07:22.412Z,99.90
2018-05-23T11:09:50.754Z,99.90
2018-05-23T11:12:18.286Z,99.90
2018-05-23T11:14:45.877Z,99.90
2018-05-23T11:17:13.321Z,99.90
2018-05-23T11:19:40.843Z,99.90
2018-05-23T11:22:08.377Z,99.90
2018-05-23T11:24:36.659Z,99.90
2018-05-23T11:27:04.157Z,99.90
2018-05-23T11:29:31.681Z,99.90
2018-05-23T11:31:59.223Z,99.90
2018-05-23T11:34:26.732Z,99.90
2018-05-23T11:36:54.258Z,99.90
2018-05-23T11:39:22.576Z,99.90
2018-05-23T11:41:50.105Z,99.90
2018-05-23T11:44:17.658Z,99.90
2018-05-23T11:46:45.930Z,99.90
2018-05-23T11:49:13.431Z,99.90
2018-05-23T11:51:41.138Z,99.90
2018-05-23T11:54:08.642Z,99.90
2018-05-23T11:56:36.149Z,99.90
2018-05-23T11:59:04.232Z,99.90
2018-05-23T12:01:31.768Z,99.90
2018-05-23T12:03:59.661Z,99.90
2018-05-23T12:06:27.177Z,99.90
2018-05-23T12:08:54.686Z,99.90
2018-05-23T12:11:22.242Z,99.90
2018-05-23T12:13:49.769Z,99.90
2018-05-23T12:16:17.303Z,99.90
2018-05-23T12:18:44.805Z,99.90
2018-05-23T12:21:12.340Z,99.90
2018-05-23T12:23:39.851Z,99.90
2018-05-23T12:26:07.375Z,99.90
2018-05-23T12:28:34.930Z,99.90
2018-05-23T12:31:02.429Z,99.90
2018-05-23T12:33:29.939Z,99.90
2018-05-23T12:35:57.459Z,99.90
2018-05-23T12:38:25.075Z,99.90
2018-05-23T12:40:52.669Z,99.90
2018-05-23T12:43:20.898Z,99.50
2018-05-23T12:45:48.409Z,99.50
2018-05-23T12:48:15.952Z,97.80
2018-05-23T12:50:44.334Z,98.60
2018-05-23T12:53:11.851Z,97.50
2018-05-23T12:55:39.516Z,97.30
2018-05-23T12:58:07.005Z,98.40
2018-05-23T13:00:34.546Z,97.80
2018-05-23T13:03:02.084Z,98.60
2018-05-23T13:05:29.626Z,98.40
2018-05-23T13:07:58.738Z,99.40
2018-05-23T13:10:27.041Z,98.40
2018-05-23T13:12:54.549Z,98.30
2018-05-23T13:15:22.082Z,99.80
2018-05-23T13:17:49.677Z,99.30
2018-05-23T13:20:17.146Z,98.60
2018-05-23T13:22:46.184Z,99.10
2018-05-23T13:25:13.718Z,99.10
2018-05-23T13:27:41.289Z,98.80
2018-05-23T13:30:08.802Z,99.50
2018-05-23T13:32:36.331Z,99.90
2018-05-23T13:35:03.858Z,99.60
2018-05-23T13:37:32.129Z,99.20
2018-05-23T13:39:59.702Z,99.20
2018-05-23T13:42:27.975Z,98.80
2018-05-23T13:44:56.262Z,99.80
2018-05-23T13:47:23.797Z,99.80
2018-05-23T13:49:52.069Z,99.90
2018-05-23T13:52:19.596Z,99.90
2018-05-23T13:54:47.161Z,99.50
2018-05-23T13:57:14.662Z,99.70
2018-05-23T13:59:42.938Z,99.90
2018-05-23T14:02:11.242Z,99.90
2018-05-23T14:04:38.802Z,99.60
2018-05-23T14:07:06.375Z,99.20
2018-05-23T14:09:33.951Z,99.90
2018-05-23T14:12:01.424Z,99.50
2018-05-23T14:14:28.997Z,99.40
2018-05-23T14:16:56.546Z,99.60
2018-05-23T14:19:24.160Z,99.00
2018-05-23T14:21:51.668Z,98.60
2018-05-23T14:24:19.939Z,99.10
2018-05-23T14:26:47.539Z,98.00
2018-05-23T14:29:15.045Z,98.10
2018-05-23T14:31:42.545Z,98.80
2018-05-23T14:34:10.073Z,98.50
2018-05-23T14:36:37.581Z,98.80
2018-05-23T14:39:05.875Z,97.20
2018-05-23T14:41:34.175Z,97.60
2018-05-23T14:44:01.699Z,97.60
2018-05-23T14:46:29.233Z,97.40
2018-05-23T14:48:56.830Z,98.00
2018-05-23T14:51:25.110Z,98.00
2018-05-23T14:53:53.470Z,94.90
2018-05-23T14:56:21.028Z,94.90
2018-05-23T14:58:48.565Z,96.00
2018-05-23T15:01:16.141Z,96.30
2018-05-23T15:03:43.651Z,96.10
2018-05-23T15:06:11.167Z,94.00
2018-05-23T15:08:38.735Z,94.10
2018-05-23T15:11:06.250Z,94.90
2018-05-23T15:13:33.763Z,95.00
2018-05-23T15:16:01.350Z,95.40
2018-05-23T15:18:28.869Z,94.30
2018-05-23T15:20:56.383Z,94.00
2018-05-23T15:23:23.904Z,93.60
2018-05-23T15:25:52.200Z,93.70
2018-05-23T15:28:19.736Z,93.70
2018-05-23T15:30:47.289Z,94.90
2018-05-23T15:33:14.795Z,94.50
2018-05-23T15:35:42.326Z,94.30
2018-05-23T15:38:09.888Z,94.70
2018-05-23T15:40:37.556Z,94.50
2018-05-23T15:43:05.055Z,94.60
2018-05-23T15:45:32.561Z,94.00
2018-05-23T15:48:00.081Z,94.80
2018-05-23T15:50:27.675Z,94.60
2018-05-23T15:52:55.239Z,95.20
2018-05-23T15:55:22.782Z,94.00
2018-05-23T15:57:51.169Z,94.00
2018-05-23T16:00:18.683Z,94.00
2018-05-23T16:02:46.179Z,93.30
2018-05-23T16:05:13.717Z,94.00
2018-05-23T16:07:41.386Z,94.30
2018-05-23T16:10:08.904Z,93.40
2018-05-23T16:12:36.437Z,93.50
2018-05-23T16:15:03.982Z,92.70
2018-05-23T16:17:31.488Z,92.30
2018-05-23T16:19:59.001Z,92.10
2018-05-23T16:22:26.576Z,92.40
2018-05-23T16:24:54.113Z,92.70
2018-05-23T16:27:21.603Z,92.50
2018-05-23T16:29:49.175Z,92.90
2018-05-23T16:32:16.715Z,92.50
2018-05-23T16:34:44.253Z,92.20
2018-05-23T16:37:11.791Z,93.00
2018-05-23T16:39:39.319Z,92.80
2018-05-23T16:42:07.586Z,92.60
2018-05-23T16:44:35.132Z,92.60
2018-05-23T16:47:02.678Z,93.00
2018-05-23T16:49:30.174Z,93.50
2018-05-23T16:51:57.716Z,92.90
2018-05-23T16:54:25.336Z,93.60
2018-05-23T16:56:52.842Z,92.90
2018-05-23T16:59:20.363Z,93.20
2018-05-23T17:01:48.149Z,93.20
2018-05-23T17:04:15.658Z,92.90
2018-05-23T17:06:43.931Z,93.40
2018-05-23T17:09:12.223Z,93.60
2018-05-23T17:11:39.762Z,93.50
2018-05-23T17:14:08.152Z,93.80
2018-05-23T17:16:35.756Z,93.80
2018-05-23T17:19:03.285Z,93.80
2018-05-23T17:21:31.190Z,94.00
2018-05-23T17:23:58.839Z,94.00
2018-05-23T17:26:26.361Z,94.30
2018-05-23T17:28:54.639Z,94.40
2018-05-23T17:31:22.174Z,94.40
2018-05-23T17:33:49.670Z,94.80
2018-05-23T17:36:17.978Z,94.50
2018-05-23T17:38:45.519Z,94.40
2018-05-23T17:41:13.025Z,94.30
2018-05-23T17:43:40.529Z,94.80
2018-05-23T17:46:08.830Z,94.80
2018-05-23T17:48:36.701Z,94.70
2018-05-23T17:51:04.314Z,95.00
2018-05-23T17:53:31.817Z,95.30
2018-05-23T17:55:59.318Z,95.60
2018-05-23T17:58:26.865Z,95.70
2018-05-23T18:10:35.677Z,95.70
2018-05-23T18:13:03.214Z,96.30
2018-05-23T18:15:30.713Z,95.90
2018-05-23T18:17:58.226Z,96.00
2018-05-23T18:20:25.783Z,96.40
2018-05-23T18:22:53.272Z,96.40
2018-05-23T18:25:20.799Z,96.40
2018-05-23T18:27:48.326Z,96.50
2018-05-23T18:30:15.847Z,96.60
2018-05-23T18:32:43.445Z,96.60
2018-05-23T18:35:11.760Z,97.30
2018-05-23T18:37:39.265Z,97.00
2018-05-23T18:40:07.874Z,97.10
2018-05-23T18:42:35.371Z,97.20
2018-05-23T18:45:02.873Z,97.30
2018-05-23T18:47:30.453Z,97.60
2018-05-23T18:49:59.587Z,97.50
2018-05-23T18:52:27.098Z,97.00
2018-05-23T18:54:54.623Z,97.50
2018-05-23T18:57:22.130Z,97.10
2018-05-23T18:59:49.631Z,97.50
2018-05-23T19:02:17.203Z,97.10
2018-05-23T19:04:44.695Z,96.90
2018-05-23T19:07:12.781Z,97.20
2018-05-23T19:09:41.125Z,96.90
2018-05-23T19:12:08.630Z,96.80
2018-05-23T19:14:36.896Z,96.90
2018-05-23T19:17:04.452Z,96.80
2018-05-23T19:19:32.813Z,96.90
2018-05-23T19:22:00.238Z,96.90
2018-05-23T19:24:27.819Z,96.90
2018-05-23T19:26:55.317Z,97.50
2018-05-23T19:29:22.838Z,97.00
2018-05-23T19:31:50.347Z,96.80
2018-05-23T19:34:17.955Z,97.00
2018-05-23T19:36:45.419Z,96.70
2018-05-23T19:39:13.057Z,97.30
2018-05-23T19:41:40.504Z,97.30
2018-05-23T19:44:08.042Z,97.10
2018-05-23T19:46:35.567Z,97.00
2018-05-23T19:49:03.168Z,97.20
2018-05-23T19:51:30.668Z,96.90
2018-05-23T19:53:58.162Z,96.30
2018-05-23T19:56:25.686Z,96.40
2018-05-23T19:58:53.193Z,96.80
2018-05-23T20:01:20.695Z,96.50
2018-05-23T20:03:48.235Z,96.70
2018-05-23T20:06:15.727Z,96.60
2018-05-23T20:08:43.291Z,96.70
2018-05-23T20:11:11.294Z,97.00
2018-05-23T20:13:38.818Z,96.90
2018-05-23T20:16:06.339Z,96.80
2018-05-23T20:18:33.899Z,96.80
2018-05-23T20:21:02.945Z,96.90
2018-05-23T20:23:30.461Z,96.90
2018-05-23T20:25:58.776Z,96.70
2018-05-23T20:28:26.298Z,96.70
2018-05-23T20:30:54.570Z,96.50
2018-05-23T20:33:22.870Z,96.70
2018-05-23T20:35:50.378Z,96.70
2018-05-23T20:38:17.893Z,96.50
2018-05-23T20:40:45.694Z,96.40
2018-05-23T20:43:13.251Z,96.50
2018-05-23T20:45:41.623Z,96.30
2018-05-23T20:48:09.151Z,96.30
2018-05-23T20:50:37.549Z,96.20
2018-05-23T20:53:05.174Z,96.20
2018-05-23T20:55:32.646Z,96.00
2018-05-23T20:58:00.910Z,96.10
2018-05-23T21:00:28.419Z,96.00
2018-05-23T21:02:55.996Z,95.90
2018-05-23T21:05:23.515Z,96.10
2018-05-23T21:07:51.608Z,96.10
2018-05-23T21:10:19.132Z,95.80
2018-05-23T21:12:47.433Z,95.50
2018-05-23T21:15:14.948Z,95.50
2018-05-23T21:17:42.456Z,95.80
2018-05-23T21:20:09.989Z,95.80
2018-05-23T21:22:37.529Z,95.50
2018-05-23T21:25:05.045Z,95.80
2018-05-23T21:27:32.593Z,96.30
2018-05-23T21:30:00.102Z,95.60
2018-05-23T21:32:27.602Z,95.70
2018-05-23T21:34:55.918Z,95.50
2018-05-23T21:37:24.412Z,95.50
2018-05-23T21:39:51.929Z,95.50
2018-05-23T21:42:19.501Z,95.60
2018-05-23T21:44:46.970Z,95.80
2018-05-23T21:47:14.489Z,95.50
2018-05-23T21:49:42.894Z,96.00
2018-05-23T21:52:10.403Z,95.60
2018-05-23T21:54:37.901Z,95.90
2018-05-23T21:57:06.187Z,95.40
2018-05-23T21:59:33.722Z,95.40
2018-05-23T22:02:01.229Z,96.10
2018-05-23T22:04:28.758Z,95.50
2018-05-23T22:06:57.034Z,95.80
2018-05-23T22:09:25.295Z,95.60
2018-05-23T22:11:52.845Z,95.60
2018-05-23T22:14:20.344Z,95.90
2018-05-23T22:16:47.868Z,96.00
2018-05-23T22:19:15.431Z,95.90
2018-05-23T22:21:42.955Z,95.80
2018-05-23T22:24:10.491Z,96.20
2018-05-23T22:26:38.005Z,95.90
2018-05-23T22:29:05.571Z,95.80
2018-05-23T22:31:33.088Z,96.00
2018-05-23T22:34:00.629Z,96.50
2018-05-23T22:36:29.398Z,96.30
2018-05-23T22:38:56.931Z,96.20
2018-05-23T22:41:24.446Z,96.10
2018-05-23T22:43:52.742Z,96.20
2018-05-23T22:46:20.252Z,96.20
2018-05-23T22:48:47.779Z,96.40
2018-05-23T22:51:15.439Z,96.50
2018-05-23T22:53:42.934Z,96.40
2018-05-23T22:56:10.478Z,96.40
2018-05-23T22:58:37.994Z,96.40
2018-05-23T23:01:05.536Z,96.00
2018-05-23T23:03:33.823Z,96.40
2018-05-23T23:06:01.349Z,96.40
2018-05-23T23:08:28.860Z,96.60
2018-05-23T23:10:56.377Z,96.40
2018-05-23T23:13:23.904Z,96.30
2018-05-23T23:15:51.447Z,96.60
2018-05-23T23:18:18.958Z,96.40
2018-05-23T23:20:46.495Z,96.90
2018-05-23T23:23:14.040Z,96.40
2018-05-23T23:25:41.612Z,96.30
2018-05-23T23:28:09.939Z,96.60
2018-05-23T23:30:37.639Z,96.60
2018-05-23T23:33:05.136Z,96.80
2018-05-23T23:35:32.660Z,96.90
2018-05-23T23:38:00.166Z,96.90
2018-05-23T23:40:27.678Z,96.80
2018-05-23T23:42:55.251Z,96.70
2018-05-23T23:45:22.765Z,96.70
2018-05-23T23:47:51.307Z,97.00
2018-05-23T23:50:19.335Z,97.30
2018-05-23T23:52:46.862Z,97.30
2018-05-23T23:55:15.146Z,97.10
2018-05-23T23:57:42.696Z,97.10
